首页
METAR-TAF:

METAR-TAF

机场 :

庫拉索國際機場

库拉索, 荷属安的列斯

纬度: 12-12N, 经度: 068-58W, 海拔: 9米

当前天气观测

该预报发布于46分钟前的16:00 UTC
风速6节,风向,在东北东转东南之间变化
温度 31°C
湿度 66%
气压 1012 hPa
能见度10公里或以上
散云层高于2400英尺

METAR: TNCC 201600Z 08006KT 050V110 9999 SCT024 31/24 Q1012 NOSIG

时间: 12:46 (16:46 UTC)

预报

该预报发布于5小时和31分钟前的11:15 UTC
预报有效从20日的 12点(UTC)到 21日的 12点(UTC)
风速8节,风向
能见度10公里或以上
散云层高于2000英尺
几率 30% :
短暂存在
从 20日的 14点(UTC)到 20日的 20点(UTC)
风速5节,风向多变,有时为15节阵风
能見度: 8000
多云层高于1500英尺
阵雨

TAF: TNCC 201115Z 2012/2112 10008KT 9999 SCT020 PROB30 TEMPO 2014/2020 VRB05G15KT 8000 SHRA BKN015

超过4000个机场的气象观测和天气预报(METAR&TAF报告)。

可查询的气象台以黄色和红色小点在地图上表示。

将鼠标移到小点上方,可查看气象台名称。

然后点击查看天气观测和预报。

如需切换地图:点击带黑十字的绿色按钮放大地图;点击带横线的绿色按钮缩小地图;或者点击绿色箭头查看邻近地区的地图。


METAR-TAF: